createdAt,value
2023-08-02T00:01:00.637Z,18.25
2023-08-02T00:03:29.066Z,18.25
2023-08-02T00:06:00.920Z,18.43
2023-08-02T00:08:30.483Z,18.59
2023-08-02T00:10:58.550Z,18.82
2023-08-02T00:13:26.627Z,18.53
2023-08-02T00:15:54.660Z,18.45
2023-08-02T00:18:22.586Z,18.42
2023-08-02T00:20:52.108Z,18.46
2023-08-02T00:23:20.099Z,18.39
2023-08-02T00:25:48.111Z,18.29
2023-08-02T00:28:16.194Z,18.52
2023-08-02T00:30:46.457Z,18.58
2023-08-02T00:33:14.667Z,18.42
2023-08-02T00:35:46.960Z,18.23
2023-08-02T00:38:15.501Z,18.07
2023-08-02T00:40:43.647Z,18.22
2023-08-02T00:43:11.477Z,18.42
2023-08-02T00:45:40.937Z,18.51
2023-08-02T00:48:09.235Z,18.54
2023-08-02T00:50:37.462Z,18.66
2023-08-02T00:53:05.774Z,18.57
2023-08-02T00:55:35.184Z,18.82
2023-08-02T00:58:03.118Z,18.74
2023-08-02T01:00:32.096Z,18.82
2023-08-02T01:08:46.909Z,19.12
2023-08-02T01:11:28.315Z,19.10
2023-08-02T01:13:58.526Z,19.15
2023-08-02T01:16:32.564Z,19.09
2023-08-02T01:19:10.471Z,19.11
2023-08-02T01:21:39.614Z,19.08
2023-08-02T01:24:08.877Z,19.10
2023-08-02T01:26:41.717Z,19.16
2023-08-02T01:29:14.522Z,18.94
2023-08-02T01:31:44.035Z,18.74
2023-08-02T01:34:31.511Z,18.90
2023-08-02T01:37:00.757Z,18.55
2023-08-02T01:39:28.898Z,18.41
2023-08-02T01:41:57.069Z,18.30
2023-08-02T01:44:25.212Z,18.14
2023-08-02T01:46:53.196Z,18.36
2023-08-02T01:49:22.968Z,18.48
2023-08-02T01:51:51.147Z,18.49
2023-08-02T01:54:19.141Z,18.48
2023-08-02T01:56:47.314Z,18.54
2023-08-02T01:59:15.243Z,18.60
2023-08-02T02:01:43.394Z,18.66
2023-08-02T02:04:11.381Z,18.65
2023-08-02T02:06:39.638Z,18.69
2023-08-02T02:09:07.756Z,18.65
2023-08-02T02:11:36.510Z,18.71
2023-08-02T02:14:04.568Z,18.71
2023-08-02T02:16:33.387Z,18.72
2023-08-02T02:19:01.266Z,18.83
2023-08-02T02:21:29.266Z,18.34
2023-08-02T02:23:57.908Z,18.26
2023-08-02T02:26:28.751Z,18.48
2023-08-02T02:28:56.706Z,18.63
2023-08-02T02:31:24.745Z,18.48
2023-08-02T02:33:52.985Z,18.52
2023-08-02T02:36:20.921Z,18.55
2023-08-02T02:38:50.334Z,18.66
2023-08-02T02:41:18.323Z,18.70
2023-08-02T02:43:46.327Z,18.72
2023-08-02T02:46:14.296Z,18.74
2023-08-02T02:50:55.443Z,18.61
2023-08-02T02:53:25.408Z,18.44
2023-08-02T02:55:53.509Z,18.54
2023-08-02T02:58:21.664Z,18.52
2023-08-02T03:00:49.649Z,18.54
2023-08-02T03:03:17.805Z,18.59
2023-08-02T03:05:45.858Z,18.57
2023-08-02T03:08:13.872Z,18.60
2023-08-02T03:10:41.822Z,18.52
2023-08-02T03:13:09.932Z,18.55
2023-08-02T03:15:37.912Z,18.51
2023-08-02T03:18:07.814Z,18.46
2023-08-02T03:20:40.505Z,18.28
2023-08-02T03:23:09.185Z,18.40
2023-08-02T03:25:37.381Z,18.43
2023-08-02T03:28:05.336Z,18.09
2023-08-02T03:30:33.381Z,17.73
2023-08-02T03:33:01.374Z,17.49
2023-08-02T03:35:29.386Z,17.61
2023-08-02T03:37:57.468Z,17.73
2023-08-02T03:40:25.963Z,17.84
2023-08-02T03:42:53.826Z,17.92
2023-08-02T03:45:21.868Z,18.09
2023-08-02T03:47:49.845Z,18.15
2023-08-02T03:50:17.811Z,18.23
2023-08-02T03:52:46.320Z,18.31
2023-08-02T03:55:14.228Z,18.06
2023-08-02T03:57:43.114Z,17.98
2023-08-02T04:00:11.459Z,18.01
2023-08-02T04:02:51.959Z,18.19
2023-08-02T04:05:19.959Z,18.30
2023-08-02T04:07:48.946Z,18.40
2023-08-02T04:10:17.053Z,18.52
2023-08-02T04:12:45.000Z,18.49
2023-08-02T04:15:13.103Z,18.50
2023-08-02T04:17:41.249Z,18.57
2023-08-02T04:20:09.882Z,18.62
2023-08-02T04:22:38.128Z,18.77
2023-08-02T04:25:06.413Z,18.89
2023-08-02T04:27:34.633Z,18.67
2023-08-02T04:30:02.621Z,18.65
2023-08-02T04:32:32.775Z,18.74
2023-08-02T04:35:00.913Z,18.93
2023-08-02T04:37:30.081Z,18.88
2023-08-02T04:39:58.084Z,18.70
2023-08-02T04:42:28.925Z,18.90
2023-08-02T04:44:56.965Z,19.09
2023-08-02T04:47:24.939Z,19.03
2023-08-02T04:49:53.218Z,19.22
2023-08-02T04:52:22.338Z,19.37
2023-08-02T04:54:52.035Z,19.40
2023-08-02T04:57:20.165Z,19.27
2023-08-02T04:59:48.157Z,19.41
2023-08-02T05:02:16.867Z,19.64
2023-08-02T05:04:44.950Z,19.74
2023-08-02T05:07:12.928Z,19.81
2023-08-02T05:09:43.859Z,19.83
2023-08-02T05:12:12.067Z,19.99
2023-08-02T05:14:40.067Z,19.83
2023-08-02T05:17:09.222Z,19.77
2023-08-02T05:19:39.480Z,19.78
2023-08-02T05:22:07.759Z,19.67
2023-08-02T05:24:35.795Z,19.72
2023-08-02T05:27:03.950Z,19.84
2023-08-02T05:29:32.002Z,20.12
2023-08-02T05:32:00.295Z,20.26
2023-08-02T05:34:28.361Z,20.38
2023-08-02T05:36:56.236Z,20.34
2023-08-02T05:39:24.524Z,20.40
2023-08-02T05:41:52.671Z,20.53
2023-08-02T05:44:20.684Z,20.63
2023-08-02T05:46:48.778Z,20.71
2023-08-02T05:49:16.664Z,20.58
2023-08-02T05:51:45.252Z,20.76
2023-08-02T05:54:13.386Z,20.96
2023-08-02T05:56:41.418Z,20.91
2023-08-02T05:59:09.485Z,20.90
2023-08-02T06:01:37.551Z,21.15
2023-08-02T06:04:05.749Z,21.38
2023-08-02T06:06:33.964Z,21.49
2023-08-02T06:09:01.964Z,22.05
2023-08-02T06:11:30.156Z,22.78
2023-08-02T06:13:59.250Z,23.38
2023-08-02T06:16:28.271Z,24.80
2023-08-02T06:18:56.343Z,24.87
2023-08-02T06:21:27.219Z,24.57
2023-08-02T06:23:55.407Z,24.69
2023-08-02T06:26:23.414Z,24.62
2023-08-02T06:28:51.484Z,25.21
2023-08-02T06:31:19.752Z,26.85
2023-08-02T06:33:47.951Z,28.12
2023-08-02T06:36:15.966Z,29.38
2023-08-02T06:38:46.703Z,30.40
2023-08-02T06:41:14.849Z,30.41
2023-08-02T06:43:43.038Z,31.33
2023-08-02T06:46:10.853Z,31.85
2023-08-02T06:48:38.779Z,33.69
2023-08-02T06:51:06.818Z,34.55
2023-08-02T06:53:35.152Z,35.34
2023-08-02T06:56:14.701Z,35.61
2023-08-02T06:58:44.072Z,35.81
2023-08-02T07:01:23.182Z,36.06
2023-08-02T07:17:22.806Z,37.95
2023-08-02T07:19:50.787Z,39.10
2023-08-02T07:22:19.241Z,39.64
2023-08-02T07:24:47.568Z,39.98
2023-08-02T07:27:15.576Z,40.08
2023-08-02T07:29:43.680Z,39.96
2023-08-02T07:32:11.866Z,39.57
2023-08-02T07:34:39.953Z,38.75
2023-08-02T07:37:08.091Z,36.46
2023-08-02T07:39:36.213Z,34.97
2023-08-02T07:42:04.779Z,32.99
2023-08-02T07:44:32.780Z,31.81
2023-08-02T07:47:00.884Z,31.72
2023-08-02T07:49:28.942Z,30.76
2023-08-02T07:51:57.470Z,30.68
2023-08-02T07:54:25.435Z,30.68
2023-08-02T07:56:53.300Z,30.43
2023-08-02T07:59:21.298Z,30.36
2023-08-02T08:01:49.368Z,29.94
2023-08-02T08:04:17.434Z,29.96
2023-08-02T08:06:48.846Z,29.92
2023-08-02T08:09:21.992Z,29.81
2023-08-02T08:11:50.134Z,29.58
2023-08-02T08:14:18.212Z,29.71
2023-08-02T08:16:46.429Z,29.76
2023-08-02T08:19:15.151Z,29.89
2023-08-02T08:21:43.420Z,29.99
2023-08-02T08:24:11.982Z,29.82
2023-08-02T08:26:40.018Z,29.69
2023-08-02T08:29:08.080Z,29.79
2023-08-02T08:31:36.078Z,29.68
2023-08-02T08:34:04.548Z,29.58
2023-08-02T08:36:32.748Z,29.84
2023-08-02T08:39:00.976Z,30.08
2023-08-02T08:41:29.209Z,30.18
2023-08-02T08:43:57.263Z,30.06
2023-08-02T08:46:27.001Z,30.18
2023-08-02T08:48:55.087Z,30.20
2023-08-02T08:51:24.001Z,30.07
2023-08-02T08:53:52.580Z,30.18
2023-08-02T08:56:27.129Z,30.39
2023-08-02T08:58:56.699Z,29.93
2023-08-02T09:01:25.328Z,30.24
2023-08-02T09:03:53.510Z,30.15
2023-08-02T09:06:22.745Z,30.36
2023-08-02T09:08:50.792Z,30.66
2023-08-02T09:11:18.747Z,30.89
2023-08-02T09:13:46.759Z,31.01
2023-08-02T09:16:16.922Z,31.02
2023-08-02T09:18:49.732Z,31.12
2023-08-02T09:21:22.969Z,31.41
2023-08-02T09:23:58.938Z,31.45
2023-08-02T09:26:26.964Z,31.29
2023-08-02T09:29:02.184Z,30.86
2023-08-02T09:31:32.382Z,30.66
2023-08-02T09:34:01.062Z,30.14
2023-08-02T09:36:32.609Z,30.18
2023-08-02T09:39:20.646Z,30.26
2023-08-02T09:42:00.105Z,30.36
2023-08-02T09:44:30.139Z,30.29
2023-08-02T09:47:10.125Z,30.12
2023-08-02T09:49:40.248Z,30.06
2023-08-02T09:52:11.889Z,30.24
2023-08-02T09:54:39.944Z,30.22
2023-08-02T09:57:08.197Z,30.15
2023-08-02T09:59:38.419Z,29.96
2023-08-02T10:02:07.108Z,30.03
2023-08-02T10:04:36.312Z,30.02
2023-08-02T10:07:10.145Z,30.01
2023-08-02T10:09:39.565Z,29.67
2023-08-02T10:12:15.146Z,29.66
2023-08-02T10:14:43.700Z,29.58
2023-08-02T10:17:13.055Z,29.89
2023-08-02T10:19:42.173Z,30.11
2023-08-02T10:22:12.726Z,30.29
2023-08-02T10:24:41.212Z,30.33
2023-08-02T10:27:10.348Z,30.45
2023-08-02T10:29:40.487Z,30.53
2023-08-02T10:32:20.722Z,30.14
2023-08-02T10:34:51.483Z,30.02
2023-08-02T10:37:22.986Z,29.99
2023-08-02T10:39:55.133Z,29.92
2023-08-02T10:42:25.828Z,29.69
2023-08-02T10:44:56.790Z,29.80
2023-08-02T10:47:32.942Z,30.03
2023-08-02T10:50:03.129Z,30.12
2023-08-02T10:52:37.702Z,30.19
2023-08-02T10:55:11.744Z,30.27
2023-08-02T10:58:06.707Z,30.41
2023-08-02T11:00:41.311Z,30.42
2023-08-02T11:03:09.514Z,30.43
2023-08-02T11:05:38.834Z,30.46
2023-08-02T11:08:11.139Z,30.47
2023-08-02T11:10:49.081Z,30.61
2023-08-02T11:13:18.349Z,30.37
2023-08-02T11:15:47.935Z,30.31
2023-08-02T11:18:31.271Z,30.28
2023-08-02T11:21:14.327Z,30.46
2023-08-02T11:26:21.335Z,30.51
2023-08-02T11:28:51.371Z,30.59
2023-08-02T11:31:23.619Z,30.59
2023-08-02T11:33:51.744Z,30.42
2023-08-02T11:36:20.140Z,30.31
2023-08-02T11:38:48.551Z,30.52
2023-08-02T11:41:19.553Z,30.26
2023-08-02T11:43:49.338Z,30.50
2023-08-02T11:46:27.778Z,30.50
2023-08-02T11:49:08.264Z,30.41
2023-08-02T11:51:45.501Z,30.28
2023-08-02T11:54:14.130Z,30.42
2023-08-02T11:56:43.011Z,30.47
2023-08-02T11:59:14.908Z,30.55
2023-08-02T12:01:43.770Z,30.60
2023-08-02T12:04:12.338Z,30.55
2023-08-02T12:06:49.903Z,30.68
2023-08-02T12:09:20.089Z,30.77
2023-08-02T12:11:55.879Z,30.78
2023-08-02T12:14:30.729Z,30.82
2023-08-02T12:17:00.018Z,30.89
2023-08-02T12:19:42.699Z,30.85
2023-08-02T12:22:13.532Z,30.86
2023-08-02T12:24:41.799Z,30.77
2023-08-02T12:27:12.832Z,30.81
2023-08-02T12:29:41.480Z,30.77
2023-08-02T12:32:28.957Z,30.81
2023-08-02T12:35:11.871Z,30.82
2023-08-02T12:37:41.206Z,30.78
2023-08-02T12:40:09.976Z,30.81
2023-08-02T12:42:48.992Z,30.67
2023-08-02T12:45:27.172Z,30.84
2023-08-02T12:47:55.721Z,30.98
2023-08-02T12:50:25.511Z,30.92
2023-08-02T12:52:56.389Z,30.90
2023-08-02T12:55:24.953Z,31.08
2023-08-02T12:57:53.757Z,31.11
2023-08-02T13:00:22.497Z,31.13
2023-08-02T13:02:51.115Z,31.06
2023-08-02T13:16:09.108Z,31.12
2023-08-02T13:18:37.227Z,31.09
2023-08-02T13:21:05.330Z,31.06
2023-08-02T13:23:33.343Z,31.16
2023-08-02T13:26:01.817Z,31.14
2023-08-02T13:28:30.254Z,31.08
2023-08-02T13:31:00.701Z,31.28
2023-08-02T13:33:29.671Z,31.21
2023-08-02T13:35:57.864Z,31.20
2023-08-02T13:38:26.550Z,31.12
2023-08-02T13:40:54.831Z,31.23
2023-08-02T13:43:23.208Z,31.07
2023-08-02T13:45:51.966Z,31.06
2023-08-02T13:48:20.589Z,30.83
2023-08-02T13:50:48.837Z,30.79
2023-08-02T13:53:17.210Z,30.82
2023-08-02T13:55:45.099Z,30.88
2023-08-02T13:58:13.354Z,30.94
2023-08-02T14:00:41.466Z,31.07
2023-08-02T14:03:09.671Z,31.08
2023-08-02T14:05:38.572Z,31.14
2023-08-02T14:08:07.046Z,31.21
2023-08-02T14:10:35.134Z,31.14
2023-08-02T14:13:03.191Z,31.15
2023-08-02T14:15:31.430Z,31.11
2023-08-02T14:18:00.272Z,30.74
2023-08-02T14:20:28.915Z,30.80
2023-08-02T14:22:57.410Z,30.83
2023-08-02T14:25:26.210Z,30.95
2023-08-02T14:27:55.000Z,30.83
2023-08-02T14:30:23.597Z,30.72
2023-08-02T14:32:52.226Z,30.70
2023-08-02T14:35:21.190Z,30.68
2023-08-02T14:37:49.702Z,30.52
2023-08-02T14:40:18.394Z,30.53
2023-08-02T14:42:47.932Z,30.46
2023-08-02T14:45:16.143Z,30.44
2023-08-02T14:47:47.250Z,30.44
2023-08-02T14:50:15.954Z,30.36
2023-08-02T14:52:44.891Z,30.39
2023-08-02T14:55:13.682Z,30.36
2023-08-02T14:57:42.898Z,30.19
2023-08-02T15:00:12.080Z,30.27
2023-08-02T15:02:40.932Z,30.32
2023-08-02T15:05:09.509Z,30.35
2023-08-02T15:07:38.274Z,30.24
2023-08-02T15:10:07.954Z,30.25
2023-08-02T15:12:36.667Z,30.12
2023-08-02T15:15:06.300Z,30.10
2023-08-02T15:17:35.126Z,30.07
2023-08-02T15:20:04.400Z,30.02
2023-08-02T15:22:33.384Z,30.00
2023-08-02T15:25:02.379Z,29.91
2023-08-02T15:27:31.138Z,29.83
2023-08-02T15:30:02.384Z,29.85
2023-08-02T15:32:31.361Z,29.79
2023-08-02T15:35:00.638Z,29.81
2023-08-02T15:37:32.409Z,29.78
2023-08-02T15:40:01.032Z,29.77
2023-08-02T15:42:31.170Z,29.76
2023-08-02T15:45:01.856Z,29.66
2023-08-02T15:47:35.611Z,29.67
2023-08-02T15:50:04.340Z,29.60
2023-08-02T15:52:45.108Z,29.52
2023-08-02T15:55:14.311Z,29.48
2023-08-02T15:57:43.751Z,29.38
2023-08-02T16:00:13.175Z,28.68
2023-08-02T16:02:43.001Z,28.47
2023-08-02T16:05:12.928Z,28.27
2023-08-02T16:07:41.579Z,28.34
2023-08-02T16:10:10.659Z,28.21
2023-08-02T16:12:39.314Z,28.28
2023-08-02T16:15:08.244Z,28.38
2023-08-02T16:17:36.678Z,28.37
2023-08-02T16:20:05.509Z,28.10
2023-08-02T16:22:33.578Z,28.01
2023-08-02T16:25:02.019Z,28.12
2023-08-02T16:27:30.198Z,27.74
2023-08-02T16:29:58.236Z,27.86
2023-08-02T16:32:26.122Z,27.95
2023-08-02T16:34:54.347Z,27.97
2023-08-02T16:37:23.029Z,27.82
2023-08-02T16:39:51.331Z,27.52
2023-08-02T16:42:20.339Z,27.35
2023-08-02T16:44:49.180Z,27.19
2023-08-02T16:47:17.777Z,27.14
2023-08-02T16:49:46.305Z,27.07
2023-08-02T16:52:14.877Z,27.25
2023-08-02T16:54:43.594Z,27.29
2023-08-02T16:57:12.322Z,27.33
2023-08-02T16:59:41.149Z,27.37
2023-08-02T17:02:09.807Z,27.28
2023-08-02T17:04:37.964Z,27.24
2023-08-02T17:07:07.258Z,27.26
2023-08-02T17:09:37.233Z,27.25
2023-08-02T17:12:06.567Z,27.19
2023-08-02T17:14:35.166Z,27.23
2023-08-02T17:17:04.736Z,27.07
2023-08-02T17:19:34.105Z,27.07
2023-08-02T17:22:02.726Z,27.05
2023-08-02T17:24:31.670Z,27.02
2023-08-02T17:27:00.428Z,27.01
2023-08-02T17:29:29.057Z,26.97
2023-08-02T17:31:58.574Z,26.95
2023-08-02T17:34:26.969Z,26.91
2023-08-02T17:36:55.744Z,26.88
2023-08-02T17:39:23.870Z,26.85
2023-08-02T17:41:52.100Z,26.77
2023-08-02T17:44:20.291Z,26.71
2023-08-02T17:46:49.821Z,26.69
2023-08-02T17:49:17.904Z,26.62
2023-08-02T17:51:46.265Z,26.60
2023-08-02T17:54:14.640Z,26.51
2023-08-02T17:56:43.300Z,26.52
2023-08-02T17:59:14.190Z,26.40
2023-08-02T18:01:42.887Z,26.21
2023-08-02T18:04:14.514Z,25.80
2023-08-02T18:06:45.901Z,25.96
2023-08-02T18:09:14.460Z,25.94
2023-08-02T18:11:42.929Z,25.76
2023-08-02T18:14:11.710Z,25.47
2023-08-02T18:16:40.432Z,25.21
2023-08-02T18:19:09.037Z,25.39
2023-08-02T18:21:37.526Z,25.45
2023-08-02T18:24:06.244Z,25.51
2023-08-02T18:26:35.097Z,25.54
2023-08-02T18:29:04.040Z,25.55
2023-08-02T18:31:32.802Z,25.39
2023-08-02T18:34:01.643Z,25.39
2023-08-02T18:36:30.481Z,25.39
2023-08-02T18:39:02.640Z,25.34
2023-08-02T18:41:31.225Z,25.27
2023-08-02T18:44:00.034Z,25.17
2023-08-02T18:46:28.621Z,25.15
2023-08-02T18:48:57.274Z,25.13
2023-08-02T18:51:26.458Z,25.14
2023-08-02T18:53:55.220Z,25.09
2023-08-02T18:56:24.857Z,25.04
2023-08-02T18:58:53.793Z,24.75
2023-08-02T19:01:22.394Z,24.56
2023-08-02T19:03:54.967Z,24.63
2023-08-02T19:06:23.629Z,24.61
2023-08-02T19:08:52.449Z,24.60
2023-08-02T19:11:23.818Z,24.54
2023-08-02T19:13:53.429Z,24.55
2023-08-02T19:16:28.135Z,24.51
2023-08-02T19:27:15.829Z,24.25
2023-08-02T19:29:45.159Z,24.14
2023-08-02T19:32:21.546Z,24.10
2023-08-02T19:34:52.981Z,24.15
2023-08-02T19:37:29.859Z,24.12
2023-08-02T19:39:58.573Z,24.06
2023-08-02T19:42:27.150Z,23.97
2023-08-02T19:44:55.737Z,23.99
2023-08-02T19:47:30.183Z,23.87
2023-08-02T19:50:01.836Z,23.83
2023-08-02T19:52:32.270Z,23.72
2023-08-02T19:55:02.683Z,23.71
2023-08-02T19:57:44.386Z,23.66
2023-08-02T20:00:16.420Z,23.62
2023-08-02T20:02:45.538Z,23.64
2023-08-02T20:05:53.308Z,23.56
2023-08-02T20:08:23.455Z,23.55
2023-08-02T20:11:07.870Z,23.50
2023-08-02T20:13:52.640Z,23.49
2023-08-02T20:16:24.664Z,23.39
2023-08-02T20:18:55.338Z,23.31
2023-08-02T20:21:25.270Z,23.31
2023-08-02T20:24:03.836Z,23.26
2023-08-02T20:26:32.904Z,23.15
2023-08-02T20:29:01.391Z,23.02
2023-08-02T20:31:37.883Z,22.91
2023-08-02T20:34:11.497Z,22.79
2023-08-02T20:36:41.876Z,22.68
2023-08-02T20:39:18.279Z,22.67
2023-08-02T20:41:49.426Z,22.70
2023-08-02T20:44:24.750Z,22.68
2023-08-02T20:46:53.209Z,22.52
2023-08-02T20:49:22.174Z,22.53
2023-08-02T20:51:50.941Z,22.42
2023-08-02T20:54:19.990Z,22.45
2023-08-02T20:56:49.143Z,22.45
2023-08-02T20:59:18.978Z,22.36
2023-08-02T21:01:47.811Z,22.31
2023-08-02T21:04:17.512Z,22.22
2023-08-02T21:07:00.954Z,22.25
2023-08-02T21:09:34.325Z,22.15
2023-08-02T21:12:03.818Z,22.22
2023-08-02T21:14:31.788Z,22.22
2023-08-02T21:17:02.726Z,22.17
2023-08-02T21:19:37.269Z,22.13
2023-08-02T21:22:06.687Z,21.99
2023-08-02T21:24:34.869Z,21.92
2023-08-02T21:27:07.057Z,21.95
2023-08-02T21:29:35.544Z,21.86
2023-08-02T21:32:04.146Z,21.82
2023-08-02T21:34:32.288Z,21.87
2023-08-02T21:37:02.614Z,21.69
2023-08-02T21:39:30.815Z,21.74
2023-08-02T21:42:00.508Z,21.81
2023-08-02T21:44:30.831Z,21.79
2023-08-02T21:47:00.732Z,21.73
2023-08-02T21:49:28.841Z,21.79
2023-08-02T21:51:56.842Z,21.82
2023-08-02T21:54:24.783Z,21.79
2023-08-02T21:56:55.847Z,21.81
2023-08-02T21:59:23.919Z,21.74
2023-08-02T22:01:51.938Z,21.67
2023-08-02T22:04:20.108Z,21.64
2023-08-02T22:08:50.054Z,21.58
2023-08-02T22:11:19.057Z,21.58
2023-08-02T22:13:48.450Z,21.51
2023-08-02T22:16:18.335Z,21.56
2023-08-02T22:18:47.077Z,21.59
2023-08-02T22:21:14.979Z,21.58
2023-08-02T22:23:44.041Z,21.50
2023-08-02T22:26:12.249Z,21.20
2023-08-02T22:28:40.273Z,21.27
2023-08-02T22:31:08.304Z,21.19
2023-08-02T22:33:36.410Z,21.27
2023-08-02T22:36:04.934Z,21.18
2023-08-02T22:38:47.876Z,21.04
2023-08-02T22:41:17.840Z,21.14
2023-08-02T22:43:47.093Z,21.17
2023-08-02T22:46:15.247Z,21.08
2023-08-02T22:49:30.779Z,21.16
2023-08-02T22:51:32.493Z,21.15
2023-08-02T22:54:00.602Z,21.15
2023-08-02T22:56:29.381Z,21.16
2023-08-02T22:59:01.409Z,21.02
2023-08-02T23:01:34.051Z,20.99
2023-08-02T23:04:02.446Z,20.96
2023-08-02T23:06:30.972Z,21.03
2023-08-02T23:08:58.970Z,21.01
2023-08-02T23:11:26.888Z,20.96
2023-08-02T23:13:55.458Z,20.91
2023-08-02T23:16:24.461Z,20.83
2023-08-02T23:18:58.283Z,20.89
2023-08-02T23:21:33.226Z,20.90
2023-08-02T23:24:01.712Z,20.88
2023-08-02T23:26:29.952Z,20.83
2023-08-02T23:29:01.812Z,20.81
2023-08-02T23:31:30.947Z,20.69
2023-08-02T23:34:00.988Z,20.72
2023-08-02T23:36:30.160Z,20.65
2023-08-02T23:38:58.396Z,20.58
2023-08-02T23:41:28.867Z,20.55
2023-08-02T23:43:56.951Z,20.40
2023-08-02T23:46:24.921Z,20.39
2023-08-02T23:48:52.899Z,20.51
2023-08-02T23:51:20.914Z,20.44
2023-08-02T23:53:48.901Z,20.45
2023-08-02T23:56:16.936Z,20.31
2023-08-02T23:58:44.986Z,20.12
